sensor_id;sensor_type;location;lat;lon;timestamp;temperature;humidity
5560;DHT22;2803;47.916;8.074;2022-10-03T00:00:26;16.30;99.90
5560;DHT22;2803;47.916;8.074;2022-10-03T00:03:16;16.30;99.90
5560;DHT22;2803;47.916;8.074;2022-10-03T00:05:55;16.20;99.90
5560;DHT22;2803;47.916;8.074;2022-10-03T00:08:33;16.20;99.90
5560;DHT22;2803;47.916;8.074;2022-10-03T00:11:08;16.20;99.90
5560;DHT22;2803;47.916;8.074;2022-10-03T00:13:46;16.20;99.90
5560;DHT22;2803;47.916;8.074;2022-10-03T00:16:19;16.30;99.90
5560;DHT22;2803;47.916;8.074;2022-10-03T00:18:54;16.30;99.90
5560;DHT22;2803;47.916;8.074;2022-10-03T00:21:34;16.30;99.90
5560;DHT22;2803;47.916;8.074;2022-10-03T00:24:13;16.30;99.90
5560;DHT22;2803;47.916;8.074;2022-10-03T00:26:48;16.50;99.90
5560;DHT22;2803;47.916;8.074;2022-10-03T00:29:28;16.40;99.90
5560;DHT22;2803;47.916;8.074;2022-10-03T00:32:06;16.30;99.90
5560;DHT22;2803;47.916;8.074;2022-10-03T00:34:46;16.30;99.90
5560;DHT22;2803;47.916;8.074;2022-10-03T00:37:25;16.20;99.90
5560;DHT22;2803;47.916;8.074;2022-10-03T00:49:01;16.20;99.90
5560;DHT22;2803;47.916;8.074;2022-10-03T00:51:41;15.90;99.90
5560;DHT22;2803;47.916;8.074;2022-10-03T00:54:25;15.70;99.90
5560;DHT22;2803;47.916;8.074;2022-10-03T00:57:15;15.50;99.90
5560;DHT22;2803;47.916;8.074;2022-10-03T01:00:03;15.10;99.90
5560;DHT22;2803;47.916;8.074;2022-10-03T01:02:45;15.20;99.90
5560;DHT22;2803;47.916;8.074;2022-10-03T01:05:19;15.50;99.90
5560;DHT22;2803;47.916;8.074;2022-10-03T01:08:01;15.60;99.90
5560;DHT22;2803;47.916;8.074;2022-10-03T01:10:40;15.50;99.90
5560;DHT22;2803;47.916;8.074;2022-10-03T01:13:21;15.50;99.90
5560;DHT22;2803;47.916;8.074;2022-10-03T01:16:03;15.40;99.90
5560;DHT22;2803;47.916;8.074;2022-10-03T01:18:40;15.50;99.90
5560;DHT22;2803;47.916;8.074;2022-10-03T01:21:17;15.50;99.90
5560;DHT22;2803;47.916;8.074;2022-10-03T01:24:05;15.70;99.90
5560;DHT22;2803;47.916;8.074;2022-10-03T01:26:53;15.50;99.90
5560;DHT22;2803;47.916;8.074;2022-10-03T01:29:30;15.30;99.90
5560;DHT22;2803;47.916;8.074;2022-10-03T01:32:20;15.40;99.90
5560;DHT22;2803;47.916;8.074;2022-10-03T01:34:53;15.30;99.90
5560;DHT22;2803;47.916;8.074;2022-10-03T01:37:32;15.50;99.90
5560;DHT22;2803;47.916;8.074;2022-10-03T01:40:10;15.30;99.90
5560;DHT22;2803;47.916;8.074;2022-10-03T01:42:45;15.20;99.90
5560;DHT22;2803;47.916;8.074;2022-10-03T01:45:28;15.20;99.90
5560;DHT22;2803;47.916;8.074;2022-10-03T01:48:01;15.30;99.90
5560;DHT22;2803;47.916;8.074;2022-10-03T01:50:35;15.30;99.90
5560;DHT22;2803;47.916;8.074;2022-10-03T01:53:06;15.30;99.90
5560;DHT22;2803;47.916;8.074;2022-10-03T01:55:47;15.30;99.90
5560;DHT22;2803;47.916;8.074;2022-10-03T01:58:21;15.20;99.90
5560;DHT22;2803;47.916;8.074;2022-10-03T02:00:57;14.90;99.90
5560;DHT22;2803;47.916;8.074;2022-10-03T02:03:27;15.00;99.90
5560;DHT22;2803;47.916;8.074;2022-10-03T02:05:59;15.20;99.90
5560;DHT22;2803;47.916;8.074;2022-10-03T02:08:45;15.40;99.90
5560;DHT22;2803;47.916;8.074;2022-10-03T02:11:27;15.40;99.90
5560;DHT22;2803;47.916;8.074;2022-10-03T02:13:58;15.50;99.90
5560;DHT22;2803;47.916;8.074;2022-10-03T02:16:37;15.50;99.90
5560;DHT22;2803;47.916;8.074;2022-10-03T02:19:12;15.40;99.90
5560;DHT22;2803;47.916;8.074;2022-10-03T02:21:46;15.40;99.90
5560;DHT22;2803;47.916;8.074;2022-10-03T02:24:23;15.40;99.90
5560;DHT22;2803;47.916;8.074;2022-10-03T02:27:07;15.40;99.90
5560;DHT22;2803;47.916;8.074;2022-10-03T02:29:54;15.40;99.90
5560;DHT22;2803;47.916;8.074;2022-10-03T02:32:37;15.40;99.90
5560;DHT22;2803;47.916;8.074;2022-10-03T02:35:27;15.20;99.90
5560;DHT22;2803;47.916;8.074;2022-10-03T02:38:17;15.30;99.90
5560;DHT22;2803;47.916;8.074;2022-10-03T02:41:08;15.50;99.90
5560;DHT22;2803;47.916;8.074;2022-10-03T02:44:00;15.50;99.90
5560;DHT22;2803;47.916;8.074;2022-10-03T02:49:49;15.60;99.90
5560;DHT22;2803;47.916;8.074;2022-10-03T02:52:44;15.70;99.90
5560;DHT22;2803;47.916;8.074;2022-10-03T02:55:31;15.70;99.90
5560;DHT22;2803;47.916;8.074;2022-10-03T02:58:29;15.70;99.90
5560;DHT22;2803;47.916;8.074;2022-10-03T03:01:26;15.60;99.90
5560;DHT22;2803;47.916;8.074;2022-10-03T03:04:10;15.50;99.90
5560;DHT22;2803;47.916;8.074;2022-10-03T03:06:56;15.60;99.90
5560;DHT22;2803;47.916;8.074;2022-10-03T03:09:45;15.70;99.90
5560;DHT22;2803;47.916;8.074;2022-10-03T03:12:32;15.70;99.90
5560;DHT22;2803;47.916;8.074;2022-10-03T03:18:03;15.70;99.90
5560;DHT22;2803;47.916;8.074;2022-10-03T03:20:43;15.60;99.90
5560;DHT22;2803;47.916;8.074;2022-10-03T03:23:32;15.60;99.90
5560;DHT22;2803;47.916;8.074;2022-10-03T03:26:16;15.70;99.90
5560;DHT22;2803;47.916;8.074;2022-10-03T03:28:51;15.70;99.90
5560;DHT22;2803;47.916;8.074;2022-10-03T03:31:30;15.70;99.90
5560;DHT22;2803;47.916;8.074;2022-10-03T03:34:04;15.70;99.90
5560;DHT22;2803;47.916;8.074;2022-10-03T03:36:37;15.60;99.90
5560;DHT22;2803;47.916;8.074;2022-10-03T03:39:16;15.70;99.90
5560;DHT22;2803;47.916;8.074;2022-10-03T03:42:00;15.90;99.90
5560;DHT22;2803;47.916;8.074;2022-10-03T03:44:46;15.90;99.90
5560;DHT22;2803;47.916;8.074;2022-10-03T03:47:30;15.80;99.90
5560;DHT22;2803;47.916;8.074;2022-10-03T03:50:22;15.70;99.90
5560;DHT22;2803;47.916;8.074;2022-10-03T03:53:04;15.50;99.90
5560;DHT22;2803;47.916;8.074;2022-10-03T03:55:44;15.50;99.90
5560;DHT22;2803;47.916;8.074;2022-10-03T03:58:21;15.50;99.90
5560;DHT22;2803;47.916;8.074;2022-10-03T04:01:01;15.40;99.90
5560;DHT22;2803;47.916;8.074;2022-10-03T04:03:40;15.40;99.90
5560;DHT22;2803;47.916;8.074;2022-10-03T04:06:20;15.60;99.90
5560;DHT22;2803;47.916;8.074;2022-10-03T04:11:56;15.50;99.90
5560;DHT22;2803;47.916;8.074;2022-10-03T04:14:51;15.30;99.90
5560;DHT22;2803;47.916;8.074;2022-10-03T04:17:30;15.50;99.90
5560;DHT22;2803;47.916;8.074;2022-10-03T04:20:27;15.40;99.90
5560;DHT22;2803;47.916;8.074;2022-10-03T04:23:11;15.50;99.90
5560;DHT22;2803;47.916;8.074;2022-10-03T04:25:51;15.50;99.90
5560;DHT22;2803;47.916;8.074;2022-10-03T04:28:37;15.30;99.90
5560;DHT22;2803;47.916;8.074;2022-10-03T04:31:18;15.10;99.90
5560;DHT22;2803;47.916;8.074;2022-10-03T04:33:59;15.20;99.90
5560;DHT22;2803;47.916;8.074;2022-10-03T04:36:43;15.30;99.90
5560;DHT22;2803;47.916;8.074;2022-10-03T04:39:17;15.10;99.90
5560;DHT22;2803;47.916;8.074;2022-10-03T04:41:52;15.30;99.90
5560;DHT22;2803;47.916;8.074;2022-10-03T04:44:34;15.40;99.90
5560;DHT22;2803;47.916;8.074;2022-10-03T04:47:07;15.40;99.90
5560;DHT22;2803;47.916;8.074;2022-10-03T04:49:44;15.20;99.90
5560;DHT22;2803;47.916;8.074;2022-10-03T04:52:17;15.10;99.90
5560;DHT22;2803;47.916;8.074;2022-10-03T04:54:53;15.10;99.90
5560;DHT22;2803;47.916;8.074;2022-10-03T04:57:30;15.10;99.90
5560;DHT22;2803;47.916;8.074;2022-10-03T05:00:19;14.80;99.90
5560;DHT22;2803;47.916;8.074;2022-10-03T05:02:51;14.70;99.90
5560;DHT22;2803;47.916;8.074;2022-10-03T05:05:30;14.90;99.90
5560;DHT22;2803;47.916;8.074;2022-10-03T05:08:10;15.00;99.90
5560;DHT22;2803;47.916;8.074;2022-10-03T05:10:47;14.90;99.90
5560;DHT22;2803;47.916;8.074;2022-10-03T05:13:21;14.90;99.90
5560;DHT22;2803;47.916;8.074;2022-10-03T05:16:01;15.00;99.90
5560;DHT22;2803;47.916;8.074;2022-10-03T05:18:34;15.10;99.90
5560;DHT22;2803;47.916;8.074;2022-10-03T05:21:10;15.10;99.90
5560;DHT22;2803;47.916;8.074;2022-10-03T05:23:45;15.20;99.90
5560;DHT22;2803;47.916;8.074;2022-10-03T05:26:22;15.30;99.90
5560;DHT22;2803;47.916;8.074;2022-10-03T05:28:56;15.40;99.90
5560;DHT22;2803;47.916;8.074;2022-10-03T05:31:36;15.40;99.90
5560;DHT22;2803;47.916;8.074;2022-10-03T05:34:15;15.40;99.90
5560;DHT22;2803;47.916;8.074;2022-10-03T05:37:01;15.30;99.90
5560;DHT22;2803;47.916;8.074;2022-10-03T05:39:39;15.30;99.90
5560;DHT22;2803;47.916;8.074;2022-10-03T05:42:29;15.40;99.90
5560;DHT22;2803;47.916;8.074;2022-10-03T05:45:03;15.40;99.90
5560;DHT22;2803;47.916;8.074;2022-10-03T05:47:39;15.20;99.90
5560;DHT22;2803;47.916;8.074;2022-10-03T05:50:23;15.10;99.90
5560;DHT22;2803;47.916;8.074;2022-10-03T05:53:04;15.20;99.90
5560;DHT22;2803;47.916;8.074;2022-10-03T05:55:43;15.10;99.90
5560;DHT22;2803;47.916;8.074;2022-10-03T05:58:25;15.10;99.90
5560;DHT22;2803;47.916;8.074;2022-10-03T06:01:10;14.90;99.90
5560;DHT22;2803;47.916;8.074;2022-10-03T06:03:59;14.80;99.90
5560;DHT22;2803;47.916;8.074;2022-10-03T06:06:32;14.80;99.90
5560;DHT22;2803;47.916;8.074;2022-10-03T06:09:25;15.00;99.90
5560;DHT22;2803;47.916;8.074;2022-10-03T06:12:00;15.00;99.90
5560;DHT22;2803;47.916;8.074;2022-10-03T06:14:41;15.10;99.90
5560;DHT22;2803;47.916;8.074;2022-10-03T06:17:27;14.90;99.90
5560;DHT22;2803;47.916;8.074;2022-10-03T06:20:09;14.90;99.90
5560;DHT22;2803;47.916;8.074;2022-10-03T06:23:01;14.80;99.90
5560;DHT22;2803;47.916;8.074;2022-10-03T06:25:51;14.70;99.90
5560;DHT22;2803;47.916;8.074;2022-10-03T06:28:47;14.50;99.90
5560;DHT22;2803;47.916;8.074;2022-10-03T06:40:23;14.50;99.90
5560;DHT22;2803;47.916;8.074;2022-10-03T06:43:04;14.50;99.90
5560;DHT22;2803;47.916;8.074;2022-10-03T06:45:57;14.50;99.90
5560;DHT22;2803;47.916;8.074;2022-10-03T06:48:45;14.60;99.90
5560;DHT22;2803;47.916;8.074;2022-10-03T06:51:36;15.00;99.90
5560;DHT22;2803;47.916;8.074;2022-10-03T06:54:23;15.10;99.90
5560;DHT22;2803;47.916;8.074;2022-10-03T06:57:16;15.20;99.90
5560;DHT22;2803;47.916;8.074;2022-10-03T07:00:02;15.30;99.90
5560;DHT22;2803;47.916;8.074;2022-10-03T07:05:56;15.50;99.90
5560;DHT22;2803;47.916;8.074;2022-10-03T07:08:41;15.60;99.90
5560;DHT22;2803;47.916;8.074;2022-10-03T07:11:25;15.60;99.90
5560;DHT22;2803;47.916;8.074;2022-10-03T07:14:13;15.60;99.90
5560;DHT22;2803;47.916;8.074;2022-10-03T07:16:57;15.30;99.90
5560;DHT22;2803;47.916;8.074;2022-10-03T07:19:42;15.10;99.90
5560;DHT22;2803;47.916;8.074;2022-10-03T07:28:16;14.50;99.90
5560;DHT22;2803;47.916;8.074;2022-10-03T07:30:58;14.00;99.90
5560;DHT22;2803;47.916;8.074;2022-10-03T07:33:44;14.60;99.90
5560;DHT22;2803;47.916;8.074;2022-10-03T07:36:30;14.90;99.90
5560;DHT22;2803;47.916;8.074;2022-10-03T07:39:25;14.50;99.90
5560;DHT22;2803;47.916;8.074;2022-10-03T07:42:16;14.50;99.90
5560;DHT22;2803;47.916;8.074;2022-10-03T07:45:18;14.50;99.90
5560;DHT22;2803;47.916;8.074;2022-10-03T07:48:01;14.70;99.90
5560;DHT22;2803;47.916;8.074;2022-10-03T07:50:47;15.10;99.90
5560;DHT22;2803;47.916;8.074;2022-10-03T07:56:30;14.30;99.90
5560;DHT22;2803;47.916;8.074;2022-10-03T07:59:31;14.70;99.90
5560;DHT22;2803;47.916;8.074;2022-10-03T08:02:21;15.00;99.90
5560;DHT22;2803;47.916;8.074;2022-10-03T08:05:06;14.70;99.90
5560;DHT22;2803;47.916;8.074;2022-10-03T08:07:55;14.50;99.90
5560;DHT22;2803;47.916;8.074;2022-10-03T08:10:55;13.90;99.90
5560;DHT22;2803;47.916;8.074;2022-10-03T08:13:38;13.70;99.90
5560;DHT22;2803;47.916;8.074;2022-10-03T08:16:22;14.00;99.90
5560;DHT22;2803;47.916;8.074;2022-10-03T08:21:55;14.10;99.90
5560;DHT22;2803;47.916;8.074;2022-10-03T08:24:36;14.20;99.90
5560;DHT22;2803;47.916;8.074;2022-10-03T08:27:24;14.10;99.90
5560;DHT22;2803;47.916;8.074;2022-10-03T08:30:05;14.00;99.90
5560;DHT22;2803;47.916;8.074;2022-10-03T08:35:42;14.70;99.90
5560;DHT22;2803;47.916;8.074;2022-10-03T08:38:41;14.90;99.90
5560;DHT22;2803;47.916;8.074;2022-10-03T08:41:35;14.60;99.90
5560;DHT22;2803;47.916;8.074;2022-10-03T08:47:20;15.00;99.90
5560;DHT22;2803;47.916;8.074;2022-10-03T08:50:08;15.00;99.90
5560;DHT22;2803;47.916;8.074;2022-10-03T08:53:11;15.20;99.90
5560;DHT22;2803;47.916;8.074;2022-10-03T08:55:48;14.90;99.90
5560;DHT22;2803;47.916;8.074;2022-10-03T09:01:19;15.30;99.90
5560;DHT22;2803;47.916;8.074;2022-10-03T09:04:06;15.40;99.90
5560;DHT22;2803;47.916;8.074;2022-10-03T09:06:57;15.50;99.90
5560;DHT22;2803;47.916;8.074;2022-10-03T09:09:49;15.40;99.90
5560;DHT22;2803;47.916;8.074;2022-10-03T09:12:33;15.50;99.90
5560;DHT22;2803;47.916;8.074;2022-10-03T09:15:32;15.40;99.90
5560;DHT22;2803;47.916;8.074;2022-10-03T09:21:12;15.20;99.90
5560;DHT22;2803;47.916;8.074;2022-10-03T09:24:10;15.10;99.90
5560;DHT22;2803;47.916;8.074;2022-10-03T09:27:09;15.10;99.90
5560;DHT22;2803;47.916;8.074;2022-10-03T09:35:41;15.90;99.90
5560;DHT22;2803;47.916;8.074;2022-10-03T09:38:34;15.40;99.90
5560;DHT22;2803;47.916;8.074;2022-10-03T09:41:28;15.70;99.90
5560;DHT22;2803;47.916;8.074;2022-10-03T09:44:19;15.90;99.90
5560;DHT22;2803;47.916;8.074;2022-10-03T09:53:11;16.90;99.90
5560;DHT22;2803;47.916;8.074;2022-10-03T09:55:58;16.90;99.90
5560;DHT22;2803;47.916;8.074;2022-10-03T09:58:44;16.90;99.90
5560;DHT22;2803;47.916;8.074;2022-10-03T10:01:29;16.90;99.90
5560;DHT22;2803;47.916;8.074;2022-10-03T10:04:19;17.30;99.90
5560;DHT22;2803;47.916;8.074;2022-10-03T10:07:19;17.40;99.90
5560;DHT22;2803;47.916;8.074;2022-10-03T10:10:04;16.70;99.90
5560;DHT22;2803;47.916;8.074;2022-10-03T10:15:50;16.90;99.90
5560;DHT22;2803;47.916;8.074;2022-10-03T10:18:36;16.80;99.90
5560;DHT22;2803;47.916;8.074;2022-10-03T10:27:18;17.50;99.90
5560;DHT22;2803;47.916;8.074;2022-10-03T10:30:04;17.90;99.90
5560;DHT22;2803;47.916;8.074;2022-10-03T10:32:58;18.30;99.90
5560;DHT22;2803;47.916;8.074;2022-10-03T10:38:44;18.00;99.90
5560;DHT22;2803;47.916;8.074;2022-10-03T10:41:38;18.00;99.90
5560;DHT22;2803;47.916;8.074;2022-10-03T10:47:11;17.70;99.90
5560;DHT22;2803;47.916;8.074;2022-10-03T10:55:51;18.00;99.90
5560;DHT22;2803;47.916;8.074;2022-10-03T11:10:30;21.20;99.90
5560;DHT22;2803;47.916;8.074;2022-10-03T11:13:28;22.30;99.90
5560;DHT22;2803;47.916;8.074;2022-10-03T11:28:12;25.40;93.80
5560;DHT22;2803;47.916;8.074;2022-10-03T11:34:14;26.00;91.70
5560;DHT22;2803;47.916;8.074;2022-10-03T11:36:59;26.10;89.30
5560;DHT22;2803;47.916;8.074;2022-10-03T11:39:37;25.80;90.10
5560;DHT22;2803;47.916;8.074;2022-10-03T11:42:15;25.40;91.20
5560;DHT22;2803;47.916;8.074;2022-10-03T11:44:52;25.20;91.10
5560;DHT22;2803;47.916;8.074;2022-10-03T11:47:39;24.60;89.90
5560;DHT22;2803;47.916;8.074;2022-10-03T11:50:29;24.40;89.00
5560;DHT22;2803;47.916;8.074;2022-10-03T11:53:07;24.50;92.10
5560;DHT22;2803;47.916;8.074;2022-10-03T11:55:39;24.70;91.70
5560;DHT22;2803;47.916;8.074;2022-10-03T11:58:21;24.30;92.40
5560;DHT22;2803;47.916;8.074;2022-10-03T12:00:57;23.30;93.50
5560;DHT22;2803;47.916;8.074;2022-10-03T12:03:27;22.40;94.30
5560;DHT22;2803;47.916;8.074;2022-10-03T12:06:01;22.10;93.80
5560;DHT22;2803;47.916;8.074;2022-10-03T12:08:49;21.70;97.20
5560;DHT22;2803;47.916;8.074;2022-10-03T12:11:23;21.30;96.30
5560;DHT22;2803;47.916;8.074;2022-10-03T12:14:05;20.80;98.10
5560;DHT22;2803;47.916;8.074;2022-10-03T12:16:49;20.40;97.30
5560;DHT22;2803;47.916;8.074;2022-10-03T12:19:26;20.40;98.10
5560;DHT22;2803;47.916;8.074;2022-10-03T12:22:00;20.40;97.90
5560;DHT22;2803;47.916;8.074;2022-10-03T12:24:28;19.70;99.90
5560;DHT22;2803;47.916;8.074;2022-10-03T12:27:03;19.40;99.90
5560;DHT22;2803;47.916;8.074;2022-10-03T12:29:33;19.00;99.90
5560;DHT22;2803;47.916;8.074;2022-10-03T12:32:13;18.70;99.90
5560;DHT22;2803;47.916;8.074;2022-10-03T12:34:43;18.60;99.90
5560;DHT22;2803;47.916;8.074;2022-10-03T12:37:34;18.70;99.90
5560;DHT22;2803;47.916;8.074;2022-10-03T12:40:09;18.60;99.90
5560;DHT22;2803;47.916;8.074;2022-10-03T12:42:42;18.70;99.90
5560;DHT22;2803;47.916;8.074;2022-10-03T12:45:18;18.60;99.90
5560;DHT22;2803;47.916;8.074;2022-10-03T12:50:43;18.80;99.90
5560;DHT22;2803;47.916;8.074;2022-10-03T12:53:23;18.70;99.90
5560;DHT22;2803;47.916;8.074;2022-10-03T12:56:01;18.40;99.90
5560;DHT22;2803;47.916;8.074;2022-10-03T12:58:38;18.40;99.90
5560;DHT22;2803;47.916;8.074;2022-10-03T13:01:17;18.60;99.90
5560;DHT22;2803;47.916;8.074;2022-10-03T13:03:49;18.80;99.90
5560;DHT22;2803;47.916;8.074;2022-10-03T13:06:33;18.90;99.90
5560;DHT22;2803;47.916;8.074;2022-10-03T13:09:17;18.80;99.90
5560;DHT22;2803;47.916;8.074;2022-10-03T13:11:54;18.30;99.90
5560;DHT22;2803;47.916;8.074;2022-10-03T13:14:33;18.30;99.90
5560;DHT22;2803;47.916;8.074;2022-10-03T13:17:15;18.10;99.90
5560;DHT22;2803;47.916;8.074;2022-10-03T13:19:49;17.90;99.90
5560;DHT22;2803;47.916;8.074;2022-10-03T13:22:27;17.90;99.90
5560;DHT22;2803;47.916;8.074;2022-10-03T13:25:02;18.10;99.90
5560;DHT22;2803;47.916;8.074;2022-10-03T13:27:36;18.00;99.90
5560;DHT22;2803;47.916;8.074;2022-10-03T13:30:15;17.90;99.90
5560;DHT22;2803;47.916;8.074;2022-10-03T13:32:46;18.00;99.90
5560;DHT22;2803;47.916;8.074;2022-10-03T13:35:21;18.00;99.90
5560;DHT22;2803;47.916;8.074;2022-10-03T13:38:16;18.00;99.90
5560;DHT22;2803;47.916;8.074;2022-10-03T13:40:50;17.90;99.90
5560;DHT22;2803;47.916;8.074;2022-10-03T13:43:23;17.80;99.90
5560;DHT22;2803;47.916;8.074;2022-10-03T13:45:52;17.80;99.90
5560;DHT22;2803;47.916;8.074;2022-10-03T13:48:22;17.80;99.90
5560;DHT22;2803;47.916;8.074;2022-10-03T13:50:57;17.90;99.90
5560;DHT22;2803;47.916;8.074;2022-10-03T13:53:43;18.10;99.90
5560;DHT22;2803;47.916;8.074;2022-10-03T13:56:25;18.30;99.90
5560;DHT22;2803;47.916;8.074;2022-10-03T13:58:58;18.20;99.90
5560;DHT22;2803;47.916;8.074;2022-10-03T14:01:36;17.80;99.90
5560;DHT22;2803;47.916;8.074;2022-10-03T14:07:01;18.30;99.90
5560;DHT22;2803;47.916;8.074;2022-10-03T14:09:39;18.10;99.90
5560;DHT22;2803;47.916;8.074;2022-10-03T14:12:21;17.90;99.90
5560;DHT22;2803;47.916;8.074;2022-10-03T14:15:01;18.50;99.90
5560;DHT22;2803;47.916;8.074;2022-10-03T14:17:36;18.80;99.90
5560;DHT22;2803;47.916;8.074;2022-10-03T14:20:17;18.30;99.90
5560;DHT22;2803;47.916;8.074;2022-10-03T14:22:55;18.40;99.90
5560;DHT22;2803;47.916;8.074;2022-10-03T14:25:26;18.60;99.90
5560;DHT22;2803;47.916;8.074;2022-10-03T14:28:00;18.30;99.90
5560;DHT22;2803;47.916;8.074;2022-10-03T14:30:33;18.20;99.90
5560;DHT22;2803;47.916;8.074;2022-10-03T14:33:11;18.10;99.90
5560;DHT22;2803;47.916;8.074;2022-10-03T14:35:50;18.00;99.90
5560;DHT22;2803;47.916;8.074;2022-10-03T14:38:32;18.10;99.90
5560;DHT22;2803;47.916;8.074;2022-10-03T14:41:19;18.20;99.90
5560;DHT22;2803;47.916;8.074;2022-10-03T14:43:52;18.40;99.90
5560;DHT22;2803;47.916;8.074;2022-10-03T14:46:22;18.10;99.90
5560;DHT22;2803;47.916;8.074;2022-10-03T14:48:52;17.80;99.90
5560;DHT22;2803;47.916;8.074;2022-10-03T14:51:25;17.40;99.90
5560;DHT22;2803;47.916;8.074;2022-10-03T14:53:56;17.10;99.90
5560;DHT22;2803;47.916;8.074;2022-10-03T14:56:27;16.90;99.90
5560;DHT22;2803;47.916;8.074;2022-10-03T14:59:02;16.80;99.90
5560;DHT22;2803;47.916;8.074;2022-10-03T15:01:46;17.20;99.90
5560;DHT22;2803;47.916;8.074;2022-10-03T15:04:19;17.30;99.90
5560;DHT22;2803;47.916;8.074;2022-10-03T15:06:50;17.60;99.90
5560;DHT22;2803;47.916;8.074;2022-10-03T15:09:25;17.70;99.90
5560;DHT22;2803;47.916;8.074;2022-10-03T15:12:00;17.50;99.90
5560;DHT22;2803;47.916;8.074;2022-10-03T15:14:33;17.30;99.90
5560;DHT22;2803;47.916;8.074;2022-10-03T15:17:03;17.60;99.90
5560;DHT22;2803;47.916;8.074;2022-10-03T15:19:36;17.10;99.90
5560;DHT22;2803;47.916;8.074;2022-10-03T15:22:14;16.70;99.90
5560;DHT22;2803;47.916;8.074;2022-10-03T15:24:45;16.80;99.90
5560;DHT22;2803;47.916;8.074;2022-10-03T15:27:17;17.20;99.90
5560;DHT22;2803;47.916;8.074;2022-10-03T15:29:51;17.20;99.90
5560;DHT22;2803;47.916;8.074;2022-10-03T15:32:22;17.10;99.90
5560;DHT22;2803;47.916;8.074;2022-10-03T15:34:55;16.80;99.90
5560;DHT22;2803;47.916;8.074;2022-10-03T15:37:25;16.60;99.90
5560;DHT22;2803;47.916;8.074;2022-10-03T15:39:59;16.50;99.90
5560;DHT22;2803;47.916;8.074;2022-10-03T15:42:29;16.70;99.90
5560;DHT22;2803;47.916;8.074;2022-10-03T15:45:00;16.80;99.90
5560;DHT22;2803;47.916;8.074;2022-10-03T15:47:31;16.70;99.90
5560;DHT22;2803;47.916;8.074;2022-10-03T15:50:02;17.10;99.90
5560;DHT22;2803;47.916;8.074;2022-10-03T15:52:36;17.10;99.90
5560;DHT22;2803;47.916;8.074;2022-10-03T15:55:06;17.10;99.90
5560;DHT22;2803;47.916;8.074;2022-10-03T15:57:41;17.00;99.90
5560;DHT22;2803;47.916;8.074;2022-10-03T16:00:19;16.80;99.90
5560;DHT22;2803;47.916;8.074;2022-10-03T16:02:57;16.60;99.90
5560;DHT22;2803;47.916;8.074;2022-10-03T16:05:26;16.80;99.90
5560;DHT22;2803;47.916;8.074;2022-10-03T16:07:57;16.80;99.90
5560;DHT22;2803;47.916;8.074;2022-10-03T16:10:28;16.60;99.90
5560;DHT22;2803;47.916;8.074;2022-10-03T16:12:59;16.70;99.90
5560;DHT22;2803;47.916;8.074;2022-10-03T16:15:40;16.60;99.90
5560;DHT22;2803;47.916;8.074;2022-10-03T16:21:18;16.80;99.90
5560;DHT22;2803;47.916;8.074;2022-10-03T16:23:49;16.80;99.90
5560;DHT22;2803;47.916;8.074;2022-10-03T16:26:22;16.60;99.90
5560;DHT22;2803;47.916;8.074;2022-10-03T16:28:51;16.70;99.90
5560;DHT22;2803;47.916;8.074;2022-10-03T16:31:25;16.40;99.90
5560;DHT22;2803;47.916;8.074;2022-10-03T16:33:56;16.50;99.90
5560;DHT22;2803;47.916;8.074;2022-10-03T16:36:25;16.60;99.90
5560;DHT22;2803;47.916;8.074;2022-10-03T16:38:53;16.70;99.90
5560;DHT22;2803;47.916;8.074;2022-10-03T16:41:24;16.60;99.90
5560;DHT22;2803;47.916;8.074;2022-10-03T16:43:54;16.60;99.90
5560;DHT22;2803;47.916;8.074;2022-10-03T16:46:23;16.50;99.90
5560;DHT22;2803;47.916;8.074;2022-10-03T16:48:52;16.50;99.90
5560;DHT22;2803;47.916;8.074;2022-10-03T16:51:38;16.30;99.90
5560;DHT22;2803;47.916;8.074;2022-10-03T16:54:10;16.10;99.90
5560;DHT22;2803;47.916;8.074;2022-10-03T16:56:40;16.10;99.90
5560;DHT22;2803;47.916;8.074;2022-10-03T16:59:11;16.20;99.90
5560;DHT22;2803;47.916;8.074;2022-10-03T17:01:44;16.30;99.90
5560;DHT22;2803;47.916;8.074;2022-10-03T17:04:20;16.20;99.90
5560;DHT22;2803;47.916;8.074;2022-10-03T17:06:48;15.90;99.90
5560;DHT22;2803;47.916;8.074;2022-10-03T17:09:21;15.90;99.90
5560;DHT22;2803;47.916;8.074;2022-10-03T17:11:53;15.90;99.90
5560;DHT22;2803;47.916;8.074;2022-10-03T17:14:21;15.80;99.90
5560;DHT22;2803;47.916;8.074;2022-10-03T17:16:55;15.90;99.90
5560;DHT22;2803;47.916;8.074;2022-10-03T17:19:31;15.70;99.90
5560;DHT22;2803;47.916;8.074;2022-10-03T17:22:06;15.80;99.90
5560;DHT22;2803;47.916;8.074;2022-10-03T17:24:41;15.90;99.90
5560;DHT22;2803;47.916;8.074;2022-10-03T17:27:15;15.80;99.90
5560;DHT22;2803;47.916;8.074;2022-10-03T17:29:48;15.80;99.90
5560;DHT22;2803;47.916;8.074;2022-10-03T17:32:22;15.40;99.90
5560;DHT22;2803;47.916;8.074;2022-10-03T17:34:54;15.30;99.90
5560;DHT22;2803;47.916;8.074;2022-10-03T17:37:42;15.50;99.90
5560;DHT22;2803;47.916;8.074;2022-10-03T17:40:20;15.50;99.90
5560;DHT22;2803;47.916;8.074;2022-10-03T17:42:52;15.00;99.90
5560;DHT22;2803;47.916;8.074;2022-10-03T17:45:30;15.30;99.90
5560;DHT22;2803;47.916;8.074;2022-10-03T17:48:07;15.30;99.90
5560;DHT22;2803;47.916;8.074;2022-10-03T17:50:37;15.20;99.90
5560;DHT22;2803;47.916;8.074;2022-10-03T17:53:16;15.00;99.90
5560;DHT22;2803;47.916;8.074;2022-10-03T17:55:54;14.50;99.90
5560;DHT22;2803;47.916;8.074;2022-10-03T17:58:22;14.40;99.90
5560;DHT22;2803;47.916;8.074;2022-10-03T18:00:59;14.70;99.90
5560;DHT22;2803;47.916;8.074;2022-10-03T18:03:31;14.70;99.90
5560;DHT22;2803;47.916;8.074;2022-10-03T18:08:47;14.80;99.90
5560;DHT22;2803;47.916;8.074;2022-10-03T18:11:17;14.80;99.90
5560;DHT22;2803;47.916;8.074;2022-10-03T18:13:48;14.40;99.90
5560;DHT22;2803;47.916;8.074;2022-10-03T18:16:19;14.10;99.90
5560;DHT22;2803;47.916;8.074;2022-10-03T18:19:04;14.20;99.90
5560;DHT22;2803;47.916;8.074;2022-10-03T18:21:43;13.60;99.90
5560;DHT22;2803;47.916;8.074;2022-10-03T18:24:21;13.50;99.90
5560;DHT22;2803;47.916;8.074;2022-10-03T18:26:56;13.30;99.90
5560;DHT22;2803;47.916;8.074;2022-10-03T18:29:32;13.50;99.90
5560;DHT22;2803;47.916;8.074;2022-10-03T18:32:11;13.20;99.90
5560;DHT22;2803;47.916;8.074;2022-10-03T18:34:43;11.90;99.90
5560;DHT22;2803;47.916;8.074;2022-10-03T18:40:13;10.90;99.90
5560;DHT22;2803;47.916;8.074;2022-10-03T18:42:44;10.90;99.90
5560;DHT22;2803;47.916;8.074;2022-10-03T18:45:16;11.10;99.90
5560;DHT22;2803;47.916;8.074;2022-10-03T18:47:50;11.50;99.90
5560;DHT22;2803;47.916;8.074;2022-10-03T18:50:23;11.40;99.90
5560;DHT22;2803;47.916;8.074;2022-10-03T18:52:54;11.30;99.90
5560;DHT22;2803;47.916;8.074;2022-10-03T18:55:25;11.10;99.90
5560;DHT22;2803;47.916;8.074;2022-10-03T18:58:03;11.30;99.90
5560;DHT22;2803;47.916;8.074;2022-10-03T19:00:46;11.60;99.90
5560;DHT22;2803;47.916;8.074;2022-10-03T19:03:18;11.70;99.90
5560;DHT22;2803;47.916;8.074;2022-10-03T19:05:52;11.80;99.90
5560;DHT22;2803;47.916;8.074;2022-10-03T19:08:22;11.60;99.90
5560;DHT22;2803;47.916;8.074;2022-10-03T19:10:51;11.70;99.90
5560;DHT22;2803;47.916;8.074;2022-10-03T19:13:26;11.60;99.90
5560;DHT22;2803;47.916;8.074;2022-10-03T19:16:08;11.60;99.90
5560;DHT22;2803;47.916;8.074;2022-10-03T19:18:41;12.00;99.90
5560;DHT22;2803;47.916;8.074;2022-10-03T19:21:13;12.40;99.90
5560;DHT22;2803;47.916;8.074;2022-10-03T19:23:44;12.50;99.90
5560;DHT22;2803;47.916;8.074;2022-10-03T19:26:21;12.10;99.90
5560;DHT22;2803;47.916;8.074;2022-10-03T19:28:50;12.20;99.90